createdAt,value
2017-04-02T00:00:40.400Z,1005.41
2017-04-02T00:01:20.962Z,1005.4
2017-04-02T00:02:01.575Z,1005.37
2017-04-02T00:02:42.122Z,1005.38
2017-04-02T00:03:22.709Z,1005.4
2017-04-02T00:04:03.295Z,1005.43
2017-04-02T00:04:43.915Z,1005.42
2017-04-02T00:05:24.492Z,1005.39
2017-04-02T00:06:05.075Z,1005.41
2017-04-02T00:06:45.668Z,1005.41
2017-04-02T00:07:26.278Z,1005.4
2017-04-02T00:08:06.917Z,1005.41
2017-04-02T00:08:47.491Z,1005.45
2017-04-02T00:09:28.070Z,1005.47
2017-04-02T00:10:08.631Z,1005.46
2017-04-02T00:10:49.215Z,1005.49
2017-04-02T00:11:29.783Z,1005.44
2017-04-02T00:12:10.374Z,1005.43
2017-04-02T00:12:50.982Z,1005.43
2017-04-02T00:13:31.554Z,1005.45
2017-04-02T00:14:12.137Z,1005.46
2017-04-02T00:14:52.721Z,1005.44
2017-04-02T00:15:33.335Z,1005.41
2017-04-02T00:16:13.917Z,1005.43
2017-04-02T00:16:54.506Z,1005.47
2017-04-02T00:17:35.076Z,1005.48
2017-04-02T00:18:15.656Z,1005.49
2017-04-02T00:18:56.242Z,1005.48
2017-04-02T00:19:36.832Z,1005.49
2017-04-02T00:20:17.415Z,1005.52
2017-04-02T00:20:58.017Z,1005.45
2017-04-02T00:21:38.657Z,1005.47
2017-04-02T00:22:19.245Z,1005.44
2017-04-02T00:22:59.891Z,1005.47
2017-04-02T00:23:40.470Z,1005.39
2017-04-02T00:24:21.063Z,1005.39
2017-04-02T00:25:01.651Z,1005.4
2017-04-02T00:25:42.237Z,1005.38
2017-04-02T00:26:22.824Z,1005.37
2017-04-02T00:27:03.430Z,1005.4
2017-04-02T00:27:44.026Z,1005.42
2017-04-02T00:28:24.601Z,1005.48
2017-04-02T00:29:05.188Z,1005.42
2017-04-02T00:29:52.345Z,1005.42
2017-04-02T00:30:32.929Z,1005.46
2017-04-02T00:31:13.507Z,1005.47
2017-04-02T00:31:54.087Z,1005.45
2017-04-02T00:32:34.682Z,1005.43
2017-04-02T00:33:15.264Z,1005.43
2017-04-02T00:33:55.840Z,1005.42
2017-04-02T00:34:36.425Z,1005.45
2017-04-02T00:35:17.022Z,1005.45
2017-04-02T00:35:57.651Z,1005.43
2017-04-02T00:36:38.218Z,1005.45
2017-04-02T00:37:18.816Z,1005.41
2017-04-02T00:37:59.389Z,1005.41
2017-04-02T00:38:39.975Z,1005.42
2017-04-02T00:39:20.557Z,1005.44
2017-04-02T00:40:01.173Z,1005.44
2017-04-02T00:40:41.731Z,1005.4
2017-04-02T00:41:22.309Z,1005.41
2017-04-02T00:42:02.936Z,1005.41
2017-04-02T00:42:43.576Z,1005.39
2017-04-02T00:43:24.128Z,1005.38
2017-04-02T00:44:04.710Z,1005.41
2017-04-02T00:44:45.284Z,1005.41
2017-04-02T00:45:25.895Z,1005.41
2017-04-02T00:46:06.510Z,1005.35
2017-04-02T00:46:47.111Z,1005.44
2017-04-02T00:47:27.679Z,1005.38
2017-04-02T00:48:08.263Z,1005.38
2017-04-02T00:48:48.851Z,1005.38
2017-04-02T00:49:29.423Z,1005.42
2017-04-02T00:50:09.999Z,1005.38
2017-04-02T00:50:50.616Z,1005.39
2017-04-02T00:51:31.202Z,1005.42
2017-04-02T00:52:11.769Z,1005.41
2017-04-02T00:52:52.353Z,1005.39
2017-04-02T00:53:32.925Z,1005.37
2017-04-02T00:54:13.527Z,1005.39
2017-04-02T00:54:54.108Z,1005.39
2017-04-02T00:55:34.699Z,1005.38
2017-04-02T00:56:15.267Z,1005.41
2017-04-02T00:56:55.866Z,1005.39
2017-04-02T00:57:36.435Z,1005.33
2017-04-02T00:58:17.053Z,1005.33
2017-04-02T00:58:57.647Z,1005.33
2017-04-02T00:59:38.259Z,1005.31
2017-04-02T01:00:18.849Z,1005.33
2017-04-02T01:00:59.445Z,1005.26
2017-04-02T01:01:40.040Z,1005.29
2017-04-02T01:02:20.631Z,1005.3
2017-04-02T01:03:01.235Z,1005.31
2017-04-02T01:03:41.797Z,1005.3
2017-04-02T01:04:22.391Z,1005.24
2017-04-02T01:05:02.992Z,1005.26
2017-04-02T01:05:43.554Z,1005.26
2017-04-02T01:06:24.138Z,1005.23
2017-04-02T01:07:04.742Z,1005.23
2017-04-02T01:07:45.319Z,1005.26
2017-04-02T01:08:25.897Z,1005.33
2017-04-02T01:09:06.509Z,1005.29
2017-04-02T01:09:47.090Z,1005.32
2017-04-02T01:10:27.672Z,1005.3
2017-04-02T01:11:08.248Z,1005.27
2017-04-02T01:11:48.821Z,1005.29
2017-04-02T01:12:29.404Z,1005.31
2017-04-02T01:13:09.986Z,1005.27
2017-04-02T01:13:50.573Z,1005.25
2017-04-02T01:14:32.112Z,1005.31
2017-04-02T01:15:12.708Z,1005.32
2017-04-02T01:15:58.103Z,1005.33
2017-04-02T01:16:38.746Z,1005.36
2017-04-02T01:17:19.346Z,1005.37
2017-04-02T01:17:59.934Z,1005.38
2017-04-02T01:18:40.556Z,1005.44
2017-04-02T01:19:21.157Z,1005.45
2017-04-02T01:20:01.774Z,1005.41
2017-04-02T01:20:42.380Z,1005.44
2017-04-02T01:21:22.969Z,1005.46
2017-04-02T01:22:03.547Z,1005.44
2017-04-02T01:22:44.158Z,1005.45
2017-04-02T01:23:24.742Z,1005.48
2017-04-02T01:24:05.346Z,1005.45
2017-04-02T01:24:45.926Z,1005.43
2017-04-02T01:25:26.506Z,1005.44
2017-04-02T01:26:07.087Z,1005.43
2017-04-02T01:26:47.671Z,1005.42
2017-04-02T01:27:28.264Z,1005.44
2017-04-02T01:28:08.844Z,1005.45
2017-04-02T01:28:49.437Z,1005.51
2017-04-02T01:29:30.016Z,1005.52
2017-04-02T01:30:10.621Z,1005.54
2017-04-02T01:30:51.207Z,1005.56
2017-04-02T01:31:31.818Z,1005.59
2017-04-02T01:32:12.429Z,1005.59
2017-04-02T01:32:52.999Z,1005.62
2017-04-02T01:33:33.580Z,1005.72
2017-04-02T01:34:14.165Z,1005.72
2017-04-02T01:34:54.732Z,1005.79
2017-04-02T01:35:35.345Z,1005.73
2017-04-02T01:36:15.945Z,1005.73
2017-04-02T01:36:56.531Z,1005.71
2017-04-02T01:37:37.131Z,1005.7
2017-04-02T01:38:17.731Z,1005.73
2017-04-02T01:38:58.296Z,1005.72
2017-04-02T01:39:38.888Z,1005.74
2017-04-02T01:40:19.486Z,1005.76
2017-04-02T01:41:00.100Z,1005.79
2017-04-02T01:41:40.672Z,1005.82
2017-04-02T01:42:21.259Z,1005.85
2017-04-02T01:43:01.833Z,1005.85
2017-04-02T01:43:42.403Z,1005.88
2017-04-02T01:44:23.004Z,1005.84
2017-04-02T01:45:03.579Z,1005.87
2017-04-02T01:45:44.159Z,1005.9
2017-04-02T01:46:24.735Z,1005.91
2017-04-02T01:47:05.321Z,1005.94
2017-04-02T01:47:45.920Z,1005.95
2017-04-02T01:48:26.499Z,1005.99
2017-04-02T01:49:07.120Z,1005.99
2017-04-02T01:49:47.700Z,1006.05
2017-04-02T01:50:28.312Z,1006.06
2017-04-02T01:51:08.916Z,1006.09
2017-04-02T01:51:49.514Z,1006.14
2017-04-02T01:52:30.084Z,1006.15
2017-04-02T01:53:10.669Z,1006.2
2017-04-02T01:53:51.279Z,1006.2
2017-04-02T01:54:31.884Z,1006.26
2017-04-02T01:55:12.472Z,1006.23
2017-04-02T01:55:53.041Z,1006.25
2017-04-02T01:56:33.641Z,1006.33
2017-04-02T01:57:14.208Z,1006.32
2017-04-02T01:57:54.798Z,1006.36
2017-04-02T01:58:35.387Z,1006.39
2017-04-02T01:59:15.959Z,1006.39
2017-04-02T01:59:56.539Z,1006.43
2017-04-02T02:00:37.122Z,1006.42
2017-04-02T02:01:17.711Z,1006.42
2017-04-02T02:01:58.286Z,1006.41
2017-04-02T02:02:38.861Z,1006.43
2017-04-02T02:03:19.441Z,1006.45
2017-04-02T02:04:00.043Z,1006.44
2017-04-02T02:04:40.651Z,1006.49
2017-04-02T02:05:21.278Z,1006.48
2017-04-02T02:06:01.881Z,1006.54
2017-04-02T02:06:42.461Z,1006.53
2017-04-02T02:07:23.057Z,1006.5
2017-04-02T02:08:03.670Z,1006.52
2017-04-02T02:08:44.254Z,1006.53
2017-04-02T02:09:24.860Z,1006.51
2017-04-02T02:10:05.451Z,1006.48
2017-04-02T02:10:46.062Z,1006.49
2017-04-02T02:11:26.680Z,1006.5
2017-04-02T02:12:07.264Z,1006.47
2017-04-02T02:12:47.841Z,1006.49
2017-04-02T02:13:28.421Z,1006.5
2017-04-02T02:14:08.998Z,1006.49
2017-04-02T02:14:49.619Z,1006.48
2017-04-02T02:15:30.190Z,1006.51
2017-04-02T02:16:10.766Z,1006.53
2017-04-02T02:16:51.373Z,1006.47
2017-04-02T02:17:31.954Z,1006.49
2017-04-02T02:18:12.524Z,1006.5
2017-04-02T02:18:53.160Z,1006.5
2017-04-02T02:19:33.740Z,1006.51
2017-04-02T02:20:14.324Z,1006.51
2017-04-02T02:20:54.907Z,1006.51
2017-04-02T02:21:35.499Z,1006.52
2017-04-02T02:22:16.096Z,1006.54
2017-04-02T02:22:56.683Z,1006.53
2017-04-02T02:23:37.259Z,1006.52
2017-04-02T02:24:17.838Z,1006.53
2017-04-02T02:24:58.455Z,1006.57
2017-04-02T02:25:39.062Z,1006.53
2017-04-02T02:26:19.642Z,1006.52
2017-04-02T02:27:00.225Z,1006.57
2017-04-02T02:27:40.813Z,1006.53
2017-04-02T02:28:21.422Z,1006.58
2017-04-02T02:29:01.997Z,1006.56
2017-04-02T02:29:42.582Z,1006.57
2017-04-02T02:30:25.011Z,1006.55
2017-04-02T02:31:05.619Z,1006.55
2017-04-02T02:31:46.285Z,1006.56
2017-04-02T02:32:26.921Z,1006.58
2017-04-02T02:33:07.504Z,1006.63
2017-04-02T02:33:48.087Z,1006.64
2017-04-02T02:34:28.655Z,1006.67
2017-04-02T02:35:09.250Z,1006.69
2017-04-02T02:35:49.822Z,1006.71
2017-04-02T02:36:30.405Z,1006.66
2017-04-02T02:37:10.975Z,1006.68
2017-04-02T02:37:51.551Z,1006.72
2017-04-02T02:38:32.151Z,1006.69
2017-04-02T02:39:12.731Z,1006.73
2017-04-02T02:39:53.302Z,1006.75
2017-04-02T02:40:33.890Z,1006.75
2017-04-02T02:41:14.473Z,1006.8
2017-04-02T02:41:55.071Z,1006.77
2017-04-02T02:42:35.668Z,1006.77
2017-04-02T02:43:16.246Z,1006.81
2017-04-02T02:43:56.832Z,1006.83
2017-04-02T02:44:37.443Z,1006.81
2017-04-02T02:45:18.026Z,1006.86
2017-04-02T02:45:58.625Z,1006.89
2017-04-02T02:46:39.233Z,1006.87
2017-04-02T02:47:19.806Z,1006.92
2017-04-02T02:48:00.405Z,1006.91
2017-04-02T02:48:40.989Z,1006.9
2017-04-02T02:49:21.579Z,1006.97
2017-04-02T02:50:02.158Z,1007.02
2017-04-02T02:50:42.733Z,1007.02
2017-04-02T02:51:23.311Z,1006.96
2017-04-02T02:52:03.898Z,1006.99
2017-04-02T02:52:49.366Z,1006.97
2017-04-02T02:53:29.976Z,1006.98
2017-04-02T02:54:10.535Z,1006.98
2017-04-02T02:54:51.131Z,1006.95
2017-04-02T02:55:31.745Z,1006.92
2017-04-02T02:56:12.305Z,1006.94
2017-04-02T02:56:52.908Z,1006.95
2017-04-02T02:57:33.465Z,1006.92
2017-04-02T02:58:14.070Z,1006.92
2017-04-02T02:58:54.692Z,1006.93
2017-04-02T02:59:35.264Z,1006.91
2017-04-02T03:00:15.860Z,1006.95
2017-04-02T03:05:38.188Z,1006.93
2017-04-02T03:08:06.513Z,1007.01
2017-04-02T03:08:47.109Z,1007.03
2017-04-02T03:09:27.694Z,1007.04
2017-04-02T03:10:08.278Z,1007.04
2017-04-02T03:10:48.870Z,1007.04
2017-04-02T03:11:29.474Z,1007.04
2017-04-02T03:12:10.065Z,1007.04
2017-04-02T03:12:50.688Z,1007.07
2017-04-02T03:13:31.288Z,1007.1
2017-04-02T03:14:11.885Z,1007.04
2017-04-02T03:14:52.445Z,1007.09
2017-04-02T03:15:33.052Z,1007.08
2017-04-02T03:16:13.707Z,1007.08
2017-04-02T03:16:54.286Z,1007.08
2017-04-02T03:17:34.868Z,1007.04
2017-04-02T03:18:15.438Z,1007.03
2017-04-02T03:18:56.018Z,1007.04
2017-04-02T03:19:36.647Z,1007.05
2017-04-02T03:20:17.237Z,1007.04
2017-04-02T03:20:57.846Z,1007.07
2017-04-02T03:21:38.443Z,1007.06
2017-04-02T03:22:19.021Z,1007.07
2017-04-02T03:22:59.606Z,1007.07
2017-04-02T03:23:40.200Z,1007.12
2017-04-02T03:25:53.281Z,1007.17
2017-04-02T03:28:28.181Z,1007.19
2017-04-02T03:29:08.756Z,1007.17
2017-04-02T03:29:49.332Z,1007.17
2017-04-02T03:31:20.527Z,1007.15
2017-04-02T03:32:01.144Z,1007.15
2017-04-02T03:32:41.708Z,1007.2
2017-04-02T03:35:01.346Z,1007.21
2017-04-02T03:35:41.924Z,1007.21
2017-04-02T03:37:55.243Z,1007.26
2017-04-02T03:38:35.806Z,1007.23
2017-04-02T03:39:16.387Z,1007.2
2017-04-02T03:39:56.989Z,1007.23
2017-04-02T03:40:37.569Z,1007.24
2017-04-02T03:41:18.141Z,1007.25
2017-04-02T03:41:58.732Z,1007.22
2017-04-02T03:42:39.325Z,1007.24
2017-04-02T03:43:21.763Z,1007.24
2017-04-02T03:44:09.042Z,1007.26
2017-04-02T03:44:49.620Z,1007.24
2017-04-02T03:45:30.187Z,1007.26
2017-04-02T03:46:10.766Z,1007.29
2017-04-02T03:46:51.353Z,1007.29
2017-04-02T03:47:31.951Z,1007.28
2017-04-02T03:48:12.518Z,1007.29
2017-04-02T03:48:53.113Z,1007.38
2017-04-02T03:49:33.697Z,1007.39
2017-04-02T03:50:14.268Z,1007.35
2017-04-02T03:50:54.859Z,1007.42
2017-04-02T03:51:35.459Z,1007.37
2017-04-02T03:52:16.032Z,1007.4
2017-04-02T03:52:56.609Z,1007.39
2017-04-02T03:53:37.214Z,1007.41
2017-04-02T03:54:17.787Z,1007.36
2017-04-02T03:54:58.370Z,1007.37
2017-04-02T03:55:38.939Z,1007.36
2017-04-02T03:56:19.515Z,1007.39
2017-04-02T03:57:00.114Z,1007.36
2017-04-02T03:57:40.675Z,1007.39
2017-04-02T03:58:21.252Z,1007.41
2017-04-02T03:59:01.820Z,1007.37
2017-04-02T03:59:42.410Z,1007.39
2017-04-02T04:00:22.980Z,1007.42
2017-04-02T04:01:03.571Z,1007.4
2017-04-02T04:01:44.180Z,1007.39
2017-04-02T04:02:24.802Z,1007.41
2017-04-02T04:03:05.440Z,1007.4
2017-04-02T04:03:46.042Z,1007.42
2017-04-02T04:04:26.649Z,1007.41
2017-04-02T04:05:07.217Z,1007.4
2017-04-02T04:05:47.850Z,1007.43
2017-04-02T04:06:28.441Z,1007.42
2017-04-02T04:07:09.003Z,1007.42
2017-04-02T04:07:49.573Z,1007.44
2017-04-02T04:08:30.147Z,1007.43
2017-04-02T04:09:10.734Z,1007.39
2017-04-02T04:09:51.336Z,1007.4
2017-04-02T04:10:31.923Z,1007.41
2017-04-02T04:11:12.495Z,1007.39
2017-04-02T04:11:53.076Z,1007.38
2017-04-02T04:12:33.649Z,1007.43
2017-04-02T04:13:14.241Z,1007.44
2017-04-02T04:13:54.815Z,1007.4
2017-04-02T04:14:35.425Z,1007.42
2017-04-02T04:15:15.993Z,1007.47
2017-04-02T04:15:56.593Z,1007.46
2017-04-02T04:16:37.181Z,1007.43
2017-04-02T04:17:17.753Z,1007.48
2017-04-02T04:17:58.344Z,1007.51
2017-04-02T04:18:38.947Z,1007.43
2017-04-02T04:19:19.548Z,1007.46
2017-04-02T04:20:00.113Z,1007.47
2017-04-02T04:20:43.273Z,1007.45
2017-04-02T04:21:23.843Z,1007.45
2017-04-02T04:22:04.401Z,1007.48
2017-04-02T04:22:44.986Z,1007.44
2017-04-02T04:23:25.560Z,1007.46
2017-04-02T04:24:06.149Z,1007.45
2017-04-02T04:24:46.713Z,1007.48
2017-04-02T04:25:27.341Z,1007.51
2017-04-02T04:26:07.926Z,1007.5
2017-04-02T04:26:48.494Z,1007.47
2017-04-02T04:27:29.056Z,1007.49
2017-04-02T04:28:09.670Z,1007.53
2017-04-02T04:28:50.254Z,1007.52
2017-04-02T04:29:30.884Z,1007.54
2017-04-02T04:30:11.465Z,1007.55
2017-04-02T04:30:52.065Z,1007.54
2017-04-02T04:31:33.429Z,1007.58
2017-04-02T04:32:14.082Z,1007.6
2017-04-02T04:32:54.610Z,1007.61
2017-04-02T04:33:35.211Z,1007.61
2017-04-02T04:34:15.788Z,1007.6
2017-04-02T04:34:56.381Z,1007.58
2017-04-02T04:35:36.964Z,1007.57
2017-04-02T04:36:17.565Z,1007.59
2017-04-02T04:36:58.153Z,1007.61
2017-04-02T04:37:38.748Z,1007.64
2017-04-02T04:38:19.343Z,1007.66
2017-04-02T04:38:59.916Z,1007.63
2017-04-02T04:39:40.497Z,1007.66
2017-04-02T04:40:21.727Z,1007.69
2017-04-02T04:41:02.318Z,1007.75
2017-04-02T04:41:42.883Z,1007.73
2017-04-02T04:42:23.479Z,1007.77
2017-04-02T04:43:04.128Z,1007.78
2017-04-02T04:43:44.732Z,1007.79
2017-04-02T04:44:25.351Z,1007.79
2017-04-02T04:45:05.968Z,1007.82
2017-04-02T04:46:58.851Z,1007.79
2017-04-02T04:47:39.464Z,1007.83
2017-04-02T04:48:20.030Z,1007.81
2017-04-02T04:49:00.912Z,1007.84
2017-04-02T04:49:41.516Z,1007.86
2017-04-02T04:50:22.110Z,1007.82
2017-04-02T04:51:02.681Z,1007.81
2017-04-02T04:51:43.274Z,1007.84
2017-04-02T04:52:24.562Z,1007.82
2017-04-02T04:53:05.146Z,1007.85
2017-04-02T04:53:45.748Z,1007.82
2017-04-02T04:54:26.351Z,1007.82
2017-04-02T04:55:06.929Z,1007.83
2017-04-02T04:55:47.506Z,1007.84
2017-04-02T04:56:28.075Z,1007.83
2017-04-02T04:57:08.702Z,1007.8
2017-04-02T04:57:50.211Z,1007.81
2017-04-02T04:58:30.788Z,1007.82
2017-04-02T04:59:11.404Z,1007.83
2017-04-02T04:59:51.972Z,1007.83
2017-04-02T05:00:33.564Z,1007.85
2017-04-02T05:01:14.162Z,1007.88
2017-04-02T05:01:54.765Z,1007.85
2017-04-02T05:02:35.340Z,1007.88
2017-04-02T05:03:15.948Z,1007.91
2017-04-02T05:03:56.553Z,1007.97
2017-04-02T05:04:37.159Z,1007.97
2017-04-02T05:05:17.753Z,1007.98
2017-04-02T05:05:58.354Z,1007.99
2017-04-02T05:06:38.922Z,1007.99
2017-04-02T05:07:19.504Z,1008.01
2017-04-02T05:08:00.072Z,1008.05
2017-04-02T05:08:40.647Z,1008.03
2017-04-02T05:09:21.240Z,1008.03
2017-04-02T05:10:01.826Z,1008.08
2017-04-02T05:10:42.407Z,1008.04
2017-04-02T05:11:23.001Z,1008.11
2017-04-02T05:12:03.581Z,1008.09
2017-04-02T05:12:44.157Z,1008.12
2017-04-02T05:13:24.743Z,1008.08
2017-04-02T05:14:05.293Z,1008.08
2017-04-02T05:14:45.874Z,1008.1
2017-04-02T05:15:26.459Z,1008.08
2017-04-02T05:16:07.126Z,1008.12
2017-04-02T05:16:47.705Z,1008.11
2017-04-02T05:17:28.292Z,1008.16
2017-04-02T05:18:08.872Z,1008.18
2017-04-02T05:18:49.463Z,1008.16
2017-04-02T05:19:30.053Z,1008.21
2017-04-02T05:20:10.652Z,1008.22
2017-04-02T05:20:51.235Z,1008.25
2017-04-02T05:21:31.826Z,1008.24
2017-04-02T05:22:12.394Z,1008.22
2017-04-02T05:22:53.034Z,1008.24
2017-04-02T05:23:33.595Z,1008.27
2017-04-02T05:24:14.164Z,1008.29
2017-04-02T05:24:54.739Z,1008.3
2017-04-02T05:25:35.315Z,1008.35
2017-04-02T05:26:15.886Z,1008.35
2017-04-02T05:26:56.472Z,1008.41
2017-04-02T05:27:37.047Z,1008.42
2017-04-02T05:28:17.631Z,1008.46
2017-04-02T05:28:58.220Z,1008.48
2017-04-02T05:29:38.798Z,1008.49
2017-04-02T05:30:19.405Z,1008.54
2017-04-02T05:30:59.975Z,1008.5
2017-04-02T05:31:40.605Z,1008.57
2017-04-02T05:32:21.195Z,1008.61
2017-04-02T05:33:01.789Z,1008.6
2017-04-02T05:33:42.432Z,1008.58
2017-04-02T05:34:23.010Z,1008.61
2017-04-02T05:35:03.593Z,1008.6
2017-04-02T05:35:44.219Z,1008.6
2017-04-02T05:36:24.819Z,1008.59
2017-04-02T05:37:05.405Z,1008.61
2017-04-02T05:37:45.997Z,1008.61
2017-04-02T05:38:26.583Z,1008.66
2017-04-02T05:39:07.159Z,1008.7
2017-04-02T05:39:47.827Z,1008.69
2017-04-02T05:40:28.455Z,1008.76
2017-04-02T05:41:09.021Z,1008.79
2017-04-02T05:41:49.646Z,1008.85
2017-04-02T05:42:30.216Z,1008.85
2017-04-02T05:43:10.837Z,1008.88
2017-04-02T05:43:51.426Z,1008.89
2017-04-02T05:44:32.008Z,1008.87
2017-04-02T05:45:12.624Z,1008.92
2017-04-02T05:45:53.198Z,1008.96
2017-04-02T05:46:33.861Z,1008.96
2017-04-02T05:47:14.475Z,1008.97
2017-04-02T05:47:55.071Z,1009
2017-04-02T05:48:35.661Z,1009.02
2017-04-02T05:49:16.244Z,1009.07
2017-04-02T05:49:56.833Z,1009.07
2017-04-02T05:50:37.426Z,1009.11
2017-04-02T05:51:18.029Z,1009.1
2017-04-02T05:51:58.635Z,1009.16
2017-04-02T05:52:39.229Z,1009.14
2017-04-02T05:53:19.828Z,1009.15
2017-04-02T05:54:00.359Z,1009.18
2017-04-02T05:54:40.944Z,1009.19
2017-04-02T05:55:21.552Z,1009.2
2017-04-02T05:56:02.191Z,1009.2
2017-04-02T05:56:42.810Z,1009.24
2017-04-02T05:57:23.453Z,1009.22
2017-04-02T05:58:04.078Z,1009.28
2017-04-02T05:58:44.663Z,1009.25
2017-04-02T05:59:25.265Z,1009.24
2017-04-02T06:00:05.864Z,1009.28
2017-04-02T06:00:46.464Z,1009.25
2017-04-02T06:01:27.032Z,1009.26
2017-04-02T06:02:07.618Z,1009.26
2017-04-02T06:02:48.220Z,1009.27
2017-04-02T06:05:09.340Z,1009.34
2017-04-02T06:05:49.920Z,1009.32
2017-04-02T06:06:30.498Z,1009.33
2017-04-02T06:07:11.115Z,1009.37
2017-04-02T06:07:51.696Z,1009.4
2017-04-02T06:08:32.285Z,1009.4
2017-04-02T06:09:12.851Z,1009.46
2017-04-02T06:11:25.897Z,1009.63
2017-04-02T06:12:06.476Z,1009.62
2017-04-02T06:12:47.041Z,1009.63
2017-04-02T06:13:27.676Z,1009.66
2017-04-02T06:14:08.270Z,1009.62
2017-04-02T06:14:48.901Z,1009.63
2017-04-02T06:17:10.416Z,1009.58
2017-04-02T06:17:50.981Z,1009.58
2017-04-02T06:18:31.557Z,1009.55
2017-04-02T06:19:12.134Z,1009.59
2017-04-02T06:19:52.710Z,1009.58
2017-04-02T06:20:33.290Z,1009.58
2017-04-02T06:21:13.899Z,1009.63
2017-04-02T06:21:54.460Z,1009.6
2017-04-02T06:22:35.051Z,1009.61
2017-04-02T06:23:15.644Z,1009.64
2017-04-02T06:23:56.217Z,1009.61
2017-04-02T06:24:36.796Z,1009.67
2017-04-02T06:25:17.365Z,1009.63
2017-04-02T06:25:58.006Z,1009.67
2017-04-02T06:26:38.588Z,1009.74
2017-04-02T06:27:19.155Z,1009.69
2017-04-02T06:27:59.749Z,1009.75
2017-04-02T06:28:40.353Z,1009.74
2017-04-02T06:29:20.924Z,1009.79
2017-04-02T06:30:01.505Z,1009.8
2017-04-02T06:30:44.580Z,1009.83
2017-04-02T06:31:25.165Z,1009.87
2017-04-02T06:32:05.728Z,1009.92
2017-04-02T06:32:46.310Z,1009.88
2017-04-02T06:33:26.898Z,1009.89
2017-04-02T06:34:07.482Z,1009.95
2017-04-02T06:34:48.062Z,1009.92
2017-04-02T06:35:29.342Z,1009.94
2017-04-02T06:36:09.910Z,1009.93
2017-04-02T06:36:50.592Z,1009.96
2017-04-02T06:37:31.183Z,1009.94
2017-04-02T06:38:11.756Z,1009.94
2017-04-02T06:38:52.347Z,1009.93
2017-04-02T06:39:32.928Z,1009.98
2017-04-02T06:40:13.516Z,1010
2017-04-02T06:40:54.104Z,1009.99
2017-04-02T06:41:34.690Z,1010.04
2017-04-02T06:42:15.308Z,1009.98
2017-04-02T06:42:55.875Z,1010.02
2017-04-02T06:43:36.484Z,1010.02
2017-04-02T06:44:17.211Z,1010.04
2017-04-02T06:44:57.791Z,1010.1
2017-04-02T06:45:38.368Z,1010.08
2017-04-02T06:46:18.943Z,1010.1
2017-04-02T06:46:59.543Z,1010.11
2017-04-02T06:47:40.162Z,1010.09
2017-04-02T06:48:20.746Z,1010.09
2017-04-02T06:49:01.371Z,1010.09
2017-04-02T06:49:41.949Z,1010.03
2017-04-02T06:50:22.529Z,1010.13
2017-04-02T06:51:03.101Z,1010
2017-04-02T06:51:43.674Z,1010.09
2017-04-02T06:52:24.264Z,1010.11
2017-04-02T06:53:04.826Z,1010.1
2017-04-02T06:53:45.421Z,1010.1
2017-04-02T06:54:26.027Z,1010.15
2017-04-02T06:55:06.618Z,1010.11
2017-04-02T06:55:47.241Z,1010.11
2017-04-02T06:56:27.906Z,1010.13
2017-04-02T06:57:08.481Z,1010.24
2017-04-02T06:57:49.070Z,1010.24
2017-04-02T06:58:29.651Z,1010.24
2017-04-02T06:59:10.239Z,1010.27
2017-04-02T06:59:50.813Z,1010.32
2017-04-02T07:00:31.401Z,1010.37
2017-04-02T07:01:12.000Z,1010.36
2017-04-02T07:01:52.544Z,1010.38
2017-04-02T07:02:33.130Z,1010.43
2017-04-02T07:03:13.747Z,1010.41
2017-04-02T07:03:54.377Z,1010.45
2017-04-02T07:04:35.000Z,1010.44
2017-04-02T07:05:15.598Z,1010.5
2017-04-02T07:05:56.188Z,1010.52
2017-04-02T07:06:36.755Z,1010.53
2017-04-02T07:07:19.220Z,1010.54
2017-04-02T07:07:59.811Z,1010.54
2017-04-02T07:08:40.417Z,1010.5
2017-04-02T07:09:21.007Z,1010.57
2017-04-02T07:10:01.589Z,1010.58
2017-04-02T07:10:42.165Z,1010.59
2017-04-02T07:11:22.760Z,1010.64
2017-04-02T07:12:03.384Z,1010.63
2017-04-02T07:12:43.980Z,1010.66
2017-04-02T07:13:24.589Z,1010.68
2017-04-02T07:14:05.180Z,1010.67
2017-04-02T07:14:45.776Z,1010.72
2017-04-02T07:15:26.347Z,1010.74
2017-04-02T07:16:06.953Z,1010.8
2017-04-02T07:16:48.205Z,1010.78
2017-04-02T07:17:28.780Z,1010.78
2017-04-02T07:18:09.350Z,1010.76
2017-04-02T07:18:49.951Z,1010.83
2017-04-02T07:19:30.547Z,1010.84
2017-04-02T07:20:11.161Z,1010.79
2017-04-02T07:20:51.770Z,1010.85
2017-04-02T07:21:32.343Z,1010.88
2017-04-02T07:22:12.953Z,1010.93
2017-04-02T07:22:53.595Z,1010.93
2017-04-02T07:23:34.137Z,1010.98
2017-04-02T07:24:14.819Z,1010.97
2017-04-02T07:24:55.440Z,1010.91
2017-04-02T07:25:36.039Z,1010.85
2017-04-02T07:26:16.622Z,1010.91
2017-04-02T07:26:57.213Z,1010.87
2017-04-02T07:27:37.834Z,1010.86
2017-04-02T07:28:18.430Z,1010.86
2017-04-02T07:28:59.020Z,1010.88
2017-04-02T07:29:39.594Z,1010.91
2017-04-02T07:30:20.225Z,1010.95
2017-04-02T07:31:00.783Z,1010.93
2017-04-02T07:31:41.371Z,1010.96
2017-04-02T07:32:21.956Z,1010.96
2017-04-02T07:33:02.575Z,1010.97
2017-04-02T07:33:43.180Z,1010.98
2017-04-02T07:34:23.789Z,1010.97
2017-04-02T07:35:04.379Z,1010.97
2017-04-02T07:35:44.989Z,1010.99
2017-04-02T07:36:25.612Z,1010.99
2017-04-02T07:37:06.192Z,1010.96
2017-04-02T07:37:46.798Z,1010.92
2017-04-02T07:38:27.382Z,1010.94
2017-04-02T07:39:08.001Z,1010.97
2017-04-02T07:39:48.598Z,1010.95
2017-04-02T07:40:29.191Z,1010.98
2017-04-02T07:41:09.771Z,1010.98
2017-04-02T07:41:50.349Z,1011.02
2017-04-02T07:42:30.923Z,1011.01
2017-04-02T07:43:11.509Z,1011.08
2017-04-02T07:43:52.142Z,1011.05
2017-04-02T07:44:32.728Z,1011.11
2017-04-02T07:45:13.315Z,1011.06
2017-04-02T07:45:53.901Z,1011.04
2017-04-02T07:46:34.510Z,1011.08
2017-04-02T07:47:15.116Z,1011.06
2017-04-02T07:47:57.568Z,1011.08
2017-04-02T07:48:38.884Z,1011.12
2017-04-02T07:49:19.869Z,1011.12
2017-04-02T07:50:03.179Z,1011.14
2017-04-02T07:50:48.833Z,1011.19
2017-04-02T07:51:31.223Z,1011.19
2017-04-02T07:52:11.814Z,1011.16
2017-04-02T07:52:52.513Z,1011.24
2017-04-02T07:53:33.297Z,1011.21
2017-04-02T07:54:13.904Z,1011.26
2017-04-02T07:54:54.493Z,1011.25
2017-04-02T07:55:35.108Z,1011.37
2017-04-02T07:56:15.695Z,1011.36
2017-04-02T07:56:56.266Z,1011.37
2017-04-02T07:57:36.832Z,1011.46
2017-04-02T07:58:17.415Z,1011.47
2017-04-02T07:58:57.998Z,1011.48
2017-04-02T07:59:38.612Z,1011.44
2017-04-02T08:00:19.195Z,1011.43
2017-04-02T08:00:59.786Z,1011.34
2017-04-02T08:01:40.414Z,1011.38
2017-04-02T08:02:21.019Z,1011.38
2017-04-02T08:03:01.613Z,1011.39
2017-04-02T08:03:42.197Z,1011.39
2017-04-02T08:04:22.843Z,1011.36
2017-04-02T08:05:03.405Z,1011.38
2017-04-02T08:05:43.979Z,1011.39
2017-04-02T08:06:24.587Z,1011.41
2017-04-02T08:07:05.165Z,1011.39
2017-04-02T08:07:45.806Z,1011.39
2017-04-02T08:08:26.436Z,1011.41
2017-04-02T08:09:07.045Z,1011.4
2017-04-02T08:09:47.685Z,1011.46
2017-04-02T08:10:28.291Z,1011.43
2017-04-02T08:11:08.869Z,1011.43
2017-04-02T08:11:49.481Z,1011.44
2017-04-02T08:12:30.076Z,1011.47
2017-04-02T08:13:10.663Z,1011.52
2017-04-02T08:13:51.261Z,1011.51
2017-04-02T08:14:31.901Z,1011.44
2017-04-02T08:15:12.486Z,1011.45
2017-04-02T08:15:53.085Z,1011.51
2017-04-02T08:16:33.686Z,1011.39
2017-04-02T08:17:14.268Z,1011.5
2017-04-02T08:17:54.859Z,1011.44
2017-04-02T08:18:35.442Z,1011.47
2017-04-02T08:19:16.055Z,1011.58
2017-04-02T08:19:56.602Z,1011.54
2017-04-02T08:20:37.232Z,1011.61
2017-04-02T08:21:17.840Z,1011.6
2017-04-02T08:21:58.446Z,1011.6
2017-04-02T08:22:39.034Z,1011.55
2017-04-02T08:23:19.613Z,1011.61
2017-04-02T08:24:00.210Z,1011.56
2017-04-02T08:24:40.779Z,1011.57
2017-04-02T08:25:22.070Z,1011.62
2017-04-02T08:26:02.634Z,1011.58
2017-04-02T08:26:43.267Z,1011.63
2017-04-02T08:27:23.845Z,1011.63
2017-04-02T08:28:04.463Z,1011.64
2017-04-02T08:28:46.460Z,1011.65
2017-04-02T08:29:29.656Z,1011.63
2017-04-02T08:30:11.443Z,1011.68
2017-04-02T08:30:52.014Z,1011.66
2017-04-02T08:31:33.618Z,1011.65
2017-04-02T08:32:15.064Z,1011.66
2017-04-02T08:32:57.963Z,1011.71
2017-04-02T08:33:41.064Z,1011.73